createdAt,value
2022-11-13T00:02:10.802Z,21.73
2022-11-13T00:04:37.295Z,23.10
2022-11-13T00:07:03.722Z,21.10
2022-11-13T00:09:30.216Z,19.73
2022-11-13T00:11:56.638Z,22.40
2022-11-13T00:14:23.105Z,21.67
2022-11-13T00:16:49.522Z,22.42
2022-11-13T00:19:16.088Z,20.85
2022-11-13T00:21:42.625Z,22.42
2022-11-13T00:24:09.148Z,19.80
2022-11-13T00:26:35.584Z,21.15
2022-11-13T00:29:03.826Z,20.20
2022-11-13T00:31:30.488Z,21.00
2022-11-13T00:34:14.494Z,21.40
2022-11-13T00:36:46.158Z,15.25
2022-11-13T00:39:12.666Z,17.88
2022-11-13T00:41:39.157Z,18.90
2022-11-13T00:44:05.861Z,16.70
2022-11-13T00:46:32.394Z,19.55
2022-11-13T00:48:58.836Z,19.58
2022-11-13T00:51:25.242Z,17.67
2022-11-13T00:53:51.668Z,16.42
2022-11-13T00:56:18.076Z,17.63
2022-11-13T00:58:44.590Z,17.33
2022-11-13T01:01:14.335Z,24.50
2022-11-13T01:03:40.933Z,22.83
2022-11-13T01:06:12.298Z,20.27
2022-11-13T01:08:38.882Z,21.95
2022-11-13T01:11:14.259Z,21.85
2022-11-13T01:13:42.233Z,19.48
2022-11-13T01:16:11.100Z,21.38
2022-11-13T01:18:38.395Z,23.52
2022-11-13T01:21:06.301Z,20.17
2022-11-13T01:23:33.191Z,23.00
2022-11-13T01:26:21.041Z,21.95
2022-11-13T01:28:47.637Z,19.33
2022-11-13T01:31:20.062Z,19.55
2022-11-13T01:33:47.709Z,19.05
2022-11-13T01:36:16.865Z,18.17
2022-11-13T01:38:43.354Z,21.30
2022-11-13T01:41:22.844Z,17.48
2022-11-13T01:43:50.179Z,18.92
2022-11-13T01:46:41.132Z,17.33
2022-11-13T01:49:10.559Z,16.73
2022-11-13T01:51:45.443Z,16.08
2022-11-13T01:54:20.355Z,21.05
2022-11-13T01:56:47.604Z,18.50
2022-11-13T01:59:21.637Z,15.60
2022-11-13T02:01:48.714Z,16.85
2022-11-13T02:04:15.320Z,17.42
2022-11-13T02:06:57.907Z,17.23
2022-11-13T02:09:27.934Z,22.38
2022-11-13T02:11:55.127Z,18.17
2022-11-13T02:14:25.375Z,19.67
2022-11-13T02:16:55.378Z,21.67
2022-11-13T02:19:36.485Z,21.10
2022-11-13T02:22:16.759Z,19.48
2022-11-13T02:24:47.918Z,17.48
2022-11-13T02:27:31.911Z,16.33
2022-11-13T02:29:58.313Z,22.88
2022-11-13T02:32:24.973Z,14.50
2022-11-13T02:34:51.467Z,16.77
2022-11-13T02:37:17.860Z,16.15
2022-11-13T02:39:44.267Z,14.30
2022-11-13T02:42:10.647Z,18.20
2022-11-13T02:44:37.206Z,18.52
2022-11-13T02:47:03.612Z,20.60
2022-11-13T02:49:30.029Z,15.27
2022-11-13T02:51:56.407Z,18.23
2022-11-13T02:54:22.873Z,17.67
2022-11-13T02:56:49.255Z,17.40
2022-11-13T02:59:15.728Z,17.05
2022-11-13T03:01:42.245Z,18.33
2022-11-13T03:04:08.693Z,14.88
2022-11-13T03:06:35.077Z,17.42
2022-11-13T03:09:01.463Z,25.25
2022-11-13T03:11:27.858Z,18.73
2022-11-13T03:13:54.241Z,18.08
2022-11-13T03:16:20.623Z,15.15
2022-11-13T03:18:47.066Z,16.13
2022-11-13T03:21:15.511Z,13.65
2022-11-13T03:23:45.001Z,16.40
2022-11-13T03:26:15.640Z,14.80
2022-11-13T03:28:42.090Z,16.00
2022-11-13T03:31:08.694Z,17.58
2022-11-13T03:33:35.195Z,15.85
2022-11-13T03:36:01.808Z,15.48
2022-11-13T03:38:28.625Z,14.77
2022-11-13T03:40:55.415Z,14.02
2022-11-13T03:43:22.193Z,12.88
2022-11-13T03:45:48.668Z,17.95
2022-11-13T03:48:16.495Z,19.02
2022-11-13T03:50:45.723Z,23.00
2022-11-13T03:53:12.942Z,31.55
2022-11-13T03:55:39.918Z,27.85
2022-11-13T03:58:06.339Z,22.60
2022-11-13T04:00:32.993Z,22.00
2022-11-13T04:02:59.438Z,20.73
2022-11-13T04:05:26.216Z,18.15
2022-11-13T04:07:52.696Z,14.55
2022-11-13T04:10:19.334Z,17.27
2022-11-13T04:12:45.720Z,12.70
2022-11-13T04:15:12.219Z,14.25
2022-11-13T04:17:38.634Z,14.80
2022-11-13T04:20:05.616Z,13.82
2022-11-13T04:22:32.033Z,13.90
2022-11-13T04:24:58.441Z,13.95
2022-11-13T04:27:24.879Z,16.05
2022-11-13T04:29:51.301Z,14.00
2022-11-13T04:32:17.722Z,13.23
2022-11-13T04:34:44.321Z,14.48
2022-11-13T04:37:10.733Z,12.35
2022-11-13T04:39:37.265Z,12.77
2022-11-13T04:42:22.419Z,12.90
2022-11-13T04:44:48.812Z,11.98
2022-11-13T04:47:15.185Z,12.80
2022-11-13T04:49:41.645Z,13.30
2022-11-13T04:52:08.065Z,13.18
2022-11-13T04:54:34.509Z,11.65
2022-11-13T04:57:00.935Z,13.80
2022-11-13T04:59:27.601Z,11.88
2022-11-13T05:01:55.693Z,12.88
2022-11-13T05:04:22.534Z,11.98
2022-11-13T05:06:49.663Z,12.15
2022-11-13T05:09:16.278Z,12.65
2022-11-13T05:11:42.729Z,15.57
2022-11-13T05:14:11.699Z,13.10
2022-11-13T05:16:38.108Z,11.18
2022-11-13T05:19:07.500Z,14.15
2022-11-13T05:21:35.180Z,13.73
2022-11-13T05:24:01.661Z,14.25
2022-11-13T05:26:28.182Z,13.65
2022-11-13T05:29:00.478Z,12.80
2022-11-13T05:31:27.075Z,13.80
2022-11-13T05:33:55.050Z,12.95
2022-11-13T05:36:22.400Z,11.13
2022-11-13T05:38:49.404Z,14.60
2022-11-13T05:41:21.458Z,14.43
2022-11-13T05:43:48.634Z,13.02
2022-11-13T05:46:17.256Z,13.75
2022-11-13T05:48:44.782Z,22.45
2022-11-13T05:51:19.627Z,24.02
2022-11-13T05:53:46.115Z,24.77
2022-11-13T05:56:19.013Z,18.15
2022-11-13T05:58:46.611Z,18.63
2022-11-13T06:01:23.681Z,15.90
2022-11-13T06:03:51.060Z,17.90
2022-11-13T06:06:20.753Z,16.23
2022-11-13T06:08:48.985Z,18.77
2022-11-13T06:11:17.857Z,21.05
2022-11-13T06:13:45.168Z,15.02
2022-11-13T06:16:13.801Z,15.55
2022-11-13T06:18:41.561Z,17.13
2022-11-13T06:21:11.587Z,17.20
2022-11-13T06:23:39.258Z,17.95
2022-11-13T06:26:11.951Z,15.80
2022-11-13T06:28:38.601Z,16.77
2022-11-13T06:31:07.540Z,15.57
2022-11-13T06:33:34.174Z,13.88
2022-11-13T06:36:10.540Z,12.65
2022-11-13T06:38:39.524Z,15.40
2022-11-13T06:41:07.008Z,33.83
2022-11-13T06:43:33.600Z,14.07
2022-11-13T06:46:07.289Z,13.35
2022-11-13T06:48:34.317Z,13.57
2022-11-13T06:51:02.702Z,13.55
2022-11-13T06:53:29.702Z,13.10
2022-11-13T06:55:56.190Z,11.82
2022-11-13T06:58:22.626Z,10.35
2022-11-13T07:00:50.812Z,10.15
2022-11-13T07:03:18.195Z,13.73
2022-11-13T07:05:44.890Z,10.80
2022-11-13T07:08:12.420Z,10.15
2022-11-13T07:10:39.577Z,10.98
2022-11-13T07:13:06.251Z,21.02
2022-11-13T07:15:37.496Z,17.67
2022-11-13T07:18:05.315Z,17.73
2022-11-13T07:20:31.977Z,20.70
2022-11-13T07:23:00.608Z,16.33
2022-11-13T07:25:28.208Z,18.38
2022-11-13T07:27:54.941Z,17.38
2022-11-13T07:30:21.634Z,14.02
2022-11-13T07:32:48.446Z,14.23
2022-11-13T07:35:15.081Z,12.70
2022-11-13T07:37:46.579Z,20.20
2022-11-13T07:40:13.109Z,20.70
2022-11-13T07:42:40.002Z,26.85
2022-11-13T07:45:07.085Z,25.45
2022-11-13T07:47:33.525Z,25.33
2022-11-13T07:50:06.761Z,36.55
2022-11-13T07:52:36.152Z,20.73
2022-11-13T07:55:02.582Z,24.90
2022-11-13T07:57:28.948Z,18.92
2022-11-13T07:59:55.338Z,16.30
2022-11-13T08:02:26.363Z,16.90
2022-11-13T08:04:53.245Z,19.00
2022-11-13T08:07:19.749Z,24.45
2022-11-13T08:09:46.169Z,18.40
2022-11-13T08:12:12.573Z,13.82
2022-11-13T08:14:39.007Z,17.50
2022-11-13T08:17:05.406Z,77.35
2022-11-13T08:19:31.796Z,98.63
2022-11-13T08:21:58.254Z,16.33
2022-11-13T08:24:24.681Z,35.60
2022-11-13T08:26:51.203Z,65.95
2022-11-13T08:29:17.620Z,9.70
2022-11-13T08:31:44.066Z,7.93
2022-11-13T08:34:10.517Z,19.55
2022-11-13T08:36:36.890Z,7.75
2022-11-13T08:39:03.340Z,14.65
2022-11-13T08:41:29.789Z,8.32
2022-11-13T08:43:56.223Z,25.73
2022-11-13T08:46:22.659Z,12.20
2022-11-13T08:48:49.045Z,15.20
2022-11-13T08:51:15.446Z,11.02
2022-11-13T08:53:41.830Z,9.23
2022-11-13T08:56:08.220Z,11.00
2022-11-13T08:58:34.747Z,13.82
2022-11-13T09:01:02.540Z,14.13
2022-11-13T09:03:29.245Z,15.00
2022-11-13T09:05:55.705Z,12.95
2022-11-13T09:08:22.109Z,10.25
2022-11-13T09:10:48.573Z,12.40
2022-11-13T09:13:14.971Z,9.85
2022-11-13T09:15:42.170Z,12.20
2022-11-13T09:18:10.213Z,19.15
2022-11-13T09:20:36.697Z,17.40
2022-11-13T09:23:06.026Z,12.50
2022-11-13T09:25:37.506Z,38.42
2022-11-13T09:28:05.715Z,18.90
2022-11-13T09:30:32.300Z,11.70
2022-11-13T09:33:00.598Z,11.98
2022-11-13T09:35:34.640Z,10.82
2022-11-13T09:38:10.969Z,10.88
2022-11-13T09:40:55.638Z,12.45
2022-11-13T09:43:45.142Z,12.10
2022-11-13T09:46:36.490Z,14.18
2022-11-13T09:49:09.036Z,11.95
2022-11-13T09:51:38.492Z,9.30
2022-11-13T09:54:13.976Z,10.00
2022-11-13T09:57:04.104Z,9.05
2022-11-13T09:59:50.642Z,19.52
2022-11-13T10:02:33.811Z,17.35
2022-11-13T10:05:13.289Z,9.60
2022-11-13T10:07:59.445Z,57.53
2022-11-13T10:10:50.710Z,29.95
2022-11-13T10:13:28.913Z,26.88
2022-11-13T10:16:08.911Z,16.75
2022-11-13T10:18:38.262Z,12.85
2022-11-13T10:21:26.269Z,9.93
2022-11-13T10:23:56.426Z,12.75
2022-11-13T10:26:26.654Z,18.50
2022-11-13T10:29:01.249Z,11.20
2022-11-13T10:31:27.677Z,10.45
2022-11-13T10:33:54.933Z,9.05
2022-11-13T10:36:34.675Z,11.93
2022-11-13T10:39:09.682Z,9.90
2022-11-13T10:44:25.599Z,15.30
2022-11-13T10:47:04.688Z,17.27
2022-11-13T10:49:31.197Z,11.75
2022-11-13T10:51:59.257Z,15.82
2022-11-13T10:54:28.411Z,23.25
2022-11-13T10:57:03.457Z,12.82
2022-11-13T11:02:23.451Z,10.32
2022-11-13T11:04:49.888Z,11.02
2022-11-13T11:07:21.527Z,11.90
2022-11-13T11:09:50.685Z,12.20
2022-11-13T11:12:19.096Z,9.43
2022-11-13T11:17:41.698Z,16.15
2022-11-13T11:20:25.807Z,16.35
2022-11-13T11:23:18.357Z,14.90
2022-11-13T11:25:59.573Z,11.95
2022-11-13T11:28:32.668Z,19.10
2022-11-13T11:31:26.663Z,14.88
2022-11-13T11:34:02.176Z,12.93
2022-11-13T11:36:34.990Z,16.52
2022-11-13T11:39:33.186Z,11.18
2022-11-13T11:42:05.730Z,11.80
2022-11-13T11:44:45.996Z,14.45
2022-11-13T11:47:16.638Z,15.43
2022-11-13T11:49:44.444Z,11.20
2022-11-13T11:52:40.646Z,13.60
2022-11-13T11:55:22.195Z,11.55
2022-11-13T11:57:57.033Z,11.85
2022-11-13T12:00:23.454Z,14.55
2022-11-13T12:02:57.830Z,19.88
2022-11-13T12:05:46.203Z,10.85
2022-11-13T12:08:51.750Z,8.82
2022-11-13T12:11:27.713Z,10.38
2022-11-13T12:14:01.384Z,10.93
2022-11-13T12:16:45.718Z,10.50
2022-11-13T12:19:43.574Z,8.88
2022-11-13T12:22:43.352Z,16.10
2022-11-13T12:25:17.608Z,10.52
2022-11-13T12:27:51.671Z,11.30
2022-11-13T12:30:22.381Z,12.23
2022-11-13T12:33:19.724Z,9.55
2022-11-13T12:35:50.413Z,14.00
2022-11-13T12:38:38.694Z,15.00
2022-11-13T12:41:23.416Z,16.80
2022-11-13T12:44:08.533Z,20.02
2022-11-13T12:46:38.322Z,19.05
2022-11-13T12:49:25.122Z,18.45
2022-11-13T12:52:00.097Z,16.63
2022-11-13T12:54:31.097Z,16.10
2022-11-13T12:57:12.815Z,9.40
2022-11-13T12:59:42.366Z,10.40
2022-11-13T13:02:25.544Z,7.45
2022-11-13T13:05:36.311Z,6.88
2022-11-13T13:08:29.113Z,10.10
2022-11-13T13:11:22.292Z,7.30
2022-11-13T13:14:10.894Z,6.13
2022-11-13T13:16:37.425Z,6.85
2022-11-13T13:19:30.201Z,6.10
2022-11-13T13:21:56.902Z,7.32
2022-11-13T13:24:34.180Z,6.18
2022-11-13T13:27:01.334Z,6.20
2022-11-13T13:29:29.969Z,6.55
2022-11-13T13:32:23.526Z,6.68
2022-11-13T13:35:14.869Z,7.47
2022-11-13T13:38:05.042Z,6.53
2022-11-13T13:40:36.767Z,6.25
2022-11-13T13:43:30.979Z,6.43
2022-11-13T13:46:06.051Z,6.53
2022-11-13T13:48:37.182Z,7.18
2022-11-13T13:51:10.328Z,6.90
2022-11-13T13:53:37.045Z,7.10
2022-11-13T13:56:04.715Z,8.50
2022-11-13T13:58:35.071Z,8.73
2022-11-13T14:01:20.335Z,6.70
2022-11-13T14:03:46.983Z,13.45
2022-11-13T14:06:23.369Z,6.22
2022-11-13T14:08:50.112Z,9.23
2022-11-13T14:11:29.467Z,7.00
2022-11-13T14:14:07.585Z,6.35
2022-11-13T14:16:34.012Z,8.57
2022-11-13T14:19:06.684Z,8.15
2022-11-13T14:21:33.418Z,7.50
2022-11-13T14:24:02.444Z,5.57
2022-11-13T14:26:29.725Z,6.05
2022-11-13T14:28:59.135Z,9.52
2022-11-13T14:31:31.502Z,8.23
2022-11-13T14:34:01.480Z,8.88
2022-11-13T14:36:31.585Z,7.47
2022-11-13T14:38:58.872Z,7.22
2022-11-13T14:41:37.097Z,8.35
2022-11-13T14:44:03.884Z,7.45
2022-11-13T14:46:38.648Z,7.47
2022-11-13T14:54:08.881Z,9.07
2022-11-13T14:56:41.358Z,10.32
2022-11-13T14:59:19.311Z,8.25
2022-11-13T15:01:57.233Z,7.55
2022-11-13T15:04:24.693Z,7.10
2022-11-13T15:06:55.475Z,6.85
2022-11-13T15:09:24.402Z,9.00
2022-11-13T15:11:50.954Z,6.40
2022-11-13T15:14:19.811Z,8.52
2022-11-13T15:16:48.383Z,11.85
2022-11-13T15:19:21.056Z,24.35
2022-11-13T15:22:05.576Z,13.15
2022-11-13T15:24:34.171Z,10.77
2022-11-13T15:27:01.847Z,9.77
2022-11-13T15:29:28.246Z,10.77
2022-11-13T15:31:54.852Z,11.32
2022-11-13T15:34:21.314Z,11.90
2022-11-13T15:36:47.685Z,13.98
2022-11-13T15:39:23.110Z,12.48
2022-11-13T15:41:50.444Z,13.43
2022-11-13T15:44:16.877Z,15.25
2022-11-13T15:46:43.292Z,16.40
2022-11-13T15:49:09.705Z,21.90
2022-11-13T15:51:39.619Z,27.80
2022-11-13T15:54:32.442Z,13.05
2022-11-13T15:56:58.868Z,16.95
2022-11-13T15:59:25.378Z,16.45
2022-11-13T16:01:57.812Z,14.07
2022-11-13T16:04:26.692Z,13.95
2022-11-13T16:07:01.166Z,13.00
2022-11-13T16:09:27.626Z,12.95
2022-11-13T16:11:53.999Z,10.82
2022-11-13T16:14:24.514Z,10.63
2022-11-13T16:16:51.961Z,11.75
2022-11-13T16:19:23.319Z,10.02
2022-11-13T16:21:50.077Z,9.90
2022-11-13T16:24:19.840Z,10.82
2022-11-13T16:26:54.447Z,10.77
2022-11-13T16:29:23.047Z,12.32
2022-11-13T16:34:16.193Z,12.32
2022-11-13T16:36:42.723Z,14.60
2022-11-13T16:39:18.073Z,11.90
2022-11-13T16:41:44.864Z,11.00
2022-11-13T16:44:11.392Z,11.48
2022-11-13T16:46:41.638Z,14.20
2022-11-13T16:49:16.195Z,12.10
2022-11-13T16:51:42.770Z,12.52
2022-11-13T16:54:09.141Z,13.90
2022-11-13T16:56:35.582Z,14.75
2022-11-13T16:59:01.977Z,14.80
2022-11-13T17:01:28.457Z,12.23
2022-11-13T17:03:54.895Z,15.65
2022-11-13T17:06:26.584Z,12.13
2022-11-13T17:08:55.562Z,15.32
2022-11-13T17:11:23.533Z,13.32
2022-11-13T17:13:51.403Z,16.05
2022-11-13T17:16:18.439Z,15.52
2022-11-13T17:18:45.423Z,13.90
2022-11-13T17:21:11.995Z,13.20
2022-11-13T17:23:38.450Z,14.95
2022-11-13T17:26:05.988Z,12.38
2022-11-13T17:28:32.785Z,14.88
2022-11-13T17:31:04.068Z,16.48
2022-11-13T17:33:31.640Z,17.70
2022-11-13T17:35:59.162Z,17.15
2022-11-13T17:38:26.118Z,16.80
2022-11-13T17:40:53.781Z,16.88
2022-11-13T17:43:21.980Z,15.13
2022-11-13T17:45:52.755Z,15.07
2022-11-13T17:48:19.143Z,16.38
2022-11-13T17:50:45.707Z,15.88
2022-11-13T17:53:13.203Z,15.63
2022-11-13T17:55:39.606Z,16.05
2022-11-13T17:58:05.995Z,17.52
2022-11-13T18:00:32.512Z,20.90
2022-11-13T18:02:58.912Z,16.52
2022-11-13T18:05:25.294Z,16.45
2022-11-13T18:07:51.915Z,19.85
2022-11-13T18:10:18.451Z,17.52
2022-11-13T18:12:44.892Z,20.90
2022-11-13T18:15:11.479Z,18.23
2022-11-13T18:17:38.127Z,17.95
2022-11-13T18:20:05.011Z,16.27
2022-11-13T18:22:31.541Z,20.60
2022-11-13T18:24:58.059Z,19.00
2022-11-13T18:27:24.457Z,17.35
2022-11-13T18:29:50.857Z,20.27
2022-11-13T18:32:17.254Z,20.00
2022-11-13T18:34:43.640Z,18.92
2022-11-13T18:37:10.197Z,19.92
2022-11-13T18:39:36.621Z,19.15
2022-11-13T18:42:03.122Z,22.95
2022-11-13T18:44:29.799Z,23.92
2022-11-13T18:46:56.210Z,21.95
2022-11-13T18:49:22.719Z,20.75
2022-11-13T18:51:49.143Z,21.50
2022-11-13T18:54:15.629Z,20.38
2022-11-13T18:56:42.166Z,20.20
2022-11-13T18:59:10.515Z,22.83
2022-11-13T19:01:39.798Z,23.98
2022-11-13T19:04:22.802Z,22.48
2022-11-13T19:06:50.931Z,24.77
2022-11-13T19:09:18.686Z,23.13
2022-11-13T19:11:45.608Z,27.88
2022-11-13T19:14:17.161Z,32.45
2022-11-13T19:16:44.156Z,20.83
2022-11-13T19:19:20.171Z,21.38
2022-11-13T19:21:47.138Z,24.45
2022-11-13T19:24:15.014Z,20.83
2022-11-13T19:26:42.698Z,22.95
2022-11-13T19:29:09.743Z,25.45
2022-11-13T19:31:36.189Z,31.08
2022-11-13T19:34:06.021Z,27.40
2022-11-13T19:36:33.699Z,25.48
2022-11-13T19:39:00.117Z,21.92
2022-11-13T19:41:29.921Z,22.70
2022-11-13T19:43:59.493Z,21.70
2022-11-13T19:46:26.014Z,20.23
2022-11-13T19:48:52.601Z,22.58
2022-11-13T19:51:21.833Z,25.42
2022-11-13T19:53:53.474Z,23.98
2022-11-13T19:56:21.468Z,25.27
2022-11-13T19:58:49.572Z,25.33
2022-11-13T20:01:21.678Z,27.52
2022-11-13T20:03:48.536Z,29.77
2022-11-13T20:06:16.807Z,29.02
2022-11-13T20:08:43.964Z,26.23
2022-11-13T20:11:11.952Z,29.38
2022-11-13T20:13:42.058Z,24.52
2022-11-13T20:16:10.895Z,23.77
2022-11-13T20:21:04.911Z,26.25
2022-11-13T20:23:31.448Z,28.17
2022-11-13T20:26:00.541Z,24.13
2022-11-13T20:28:29.106Z,20.92
2022-11-13T20:33:40.594Z,18.77
2022-11-13T20:36:07.349Z,20.02
2022-11-13T20:38:33.730Z,23.05
2022-11-13T20:41:06.766Z,24.52
2022-11-13T20:43:35.827Z,23.95
2022-11-13T20:46:07.752Z,27.70
2022-11-13T20:48:34.434Z,24.10
2022-11-13T20:51:14.214Z,24.67
2022-11-13T20:53:41.496Z,24.95
2022-11-13T20:56:08.346Z,25.00
2022-11-13T20:58:35.276Z,26.88
2022-11-13T21:01:06.905Z,23.55
2022-11-13T21:03:39.868Z,25.17
2022-11-13T21:06:09.240Z,25.85
2022-11-13T21:08:38.676Z,29.20
2022-11-13T21:11:08.934Z,48.83
2022-11-13T21:13:35.357Z,35.90
2022-11-13T21:16:08.867Z,24.40
2022-11-13T21:18:36.010Z,37.28
2022-11-13T21:21:11.211Z,33.42
2022-11-13T21:23:38.033Z,25.80
2022-11-13T21:26:06.414Z,26.25
2022-11-13T21:28:35.472Z,25.33
2022-11-13T21:31:16.890Z,25.30
2022-11-13T21:33:44.721Z,29.45
2022-11-13T21:36:18.092Z,38.92
2022-11-13T21:38:46.764Z,24.48
2022-11-13T21:41:23.125Z,38.70
2022-11-13T21:43:57.062Z,31.00
2022-11-13T21:46:27.224Z,23.83
2022-11-13T21:48:59.647Z,23.88
2022-11-13T21:51:29.475Z,24.73
2022-11-13T21:53:56.477Z,23.50
2022-11-13T21:56:24.192Z,27.73
2022-11-13T21:58:50.700Z,25.92
2022-11-13T22:01:17.838Z,24.80
2022-11-13T22:03:44.245Z,22.42
2022-11-13T22:06:24.794Z,22.55
2022-11-13T22:09:13.588Z,26.35
2022-11-13T22:11:40.325Z,22.48
2022-11-13T22:14:06.876Z,25.33
2022-11-13T22:16:35.882Z,19.88
2022-11-13T22:19:05.695Z,20.90
2022-11-13T22:21:32.615Z,20.90
2022-11-13T22:24:00.697Z,22.92
2022-11-13T22:26:28.852Z,21.98
2022-11-13T22:28:56.154Z,21.48
2022-11-13T22:31:25.353Z,25.20
2022-11-13T22:33:54.882Z,21.67
2022-11-13T22:36:33.955Z,24.35
2022-11-13T22:39:01.135Z,21.30
2022-11-13T22:41:31.082Z,21.98
2022-11-13T22:44:06.337Z,23.02
2022-11-13T22:46:35.391Z,21.63
2022-11-13T22:49:04.907Z,22.33
2022-11-13T22:51:38.175Z,25.85
2022-11-13T22:54:07.634Z,24.50
2022-11-13T22:56:35.777Z,20.35
2022-11-13T22:59:04.041Z,20.50
2022-11-13T23:01:32.602Z,24.88
2022-11-13T23:04:01.409Z,27.40
2022-11-13T23:06:30.710Z,20.45
2022-11-13T23:08:57.632Z,25.00
2022-11-13T23:11:31.430Z,24.25
2022-11-13T23:13:59.760Z,21.77
2022-11-13T23:16:27.657Z,23.13
2022-11-13T23:18:56.073Z,27.40
2022-11-13T23:21:25.109Z,24.58
2022-11-13T23:23:52.306Z,22.30
2022-11-13T23:26:19.275Z,26.20
2022-11-13T23:28:46.120Z,22.35
2022-11-13T23:31:12.759Z,21.67
2022-11-13T23:33:40.292Z,23.77
2022-11-13T23:36:08.753Z,21.58
2022-11-13T23:38:35.337Z,25.17
2022-11-13T23:41:02.013Z,22.70
2022-11-13T23:43:54.395Z,25.83
2022-11-13T23:48:43.153Z,22.80
2022-11-13T23:51:09.560Z,23.73
2022-11-13T23:53:35.982Z,19.67
2022-11-13T23:56:02.440Z,24.02
2022-11-13T23:58:29.339Z,20.15
